sensor_id;sensor_type;location;lat;lon;timestamp;P1;durP1;ratioP1;P2;durP2;ratioP2
58496;SDS011;44284;51.310;16.904;2022-11-20T00:00:49;61.35;;;29.75;;
58496;SDS011;44284;51.310;16.904;2022-11-20T00:03:15;64.15;;;28.83;;
58496;SDS011;44284;51.310;16.904;2022-11-20T00:05:42;61.17;;;29.58;;
58496;SDS011;44284;51.310;16.904;2022-11-20T00:08:08;89.18;;;35.55;;
58496;SDS011;44284;51.310;16.904;2022-11-20T00:10:38;98.15;;;39.20;;
58496;SDS011;44284;51.310;16.904;2022-11-20T00:13:04;78.18;;;37.58;;
58496;SDS011;44284;51.310;16.904;2022-11-20T00:15:30;86.53;;;36.40;;
58496;SDS011;44284;51.310;16.904;2022-11-20T00:17:56;86.75;;;36.63;;
58496;SDS011;44284;51.310;16.904;2022-11-20T00:20:22;93.55;;;37.30;;
58496;SDS011;44284;51.310;16.904;2022-11-20T00:22:49;83.40;;;33.80;;
58496;SDS011;44284;51.310;16.904;2022-11-20T00:25:15;77.10;;;32.38;;
58496;SDS011;44284;51.310;16.904;2022-11-20T00:27:41;87.13;;;35.67;;
58496;SDS011;44284;51.310;16.904;2022-11-20T00:30:07;69.88;;;29.63;;
58496;SDS011;44284;51.310;16.904;2022-11-20T00:32:33;67.40;;;29.77;;
58496;SDS011;44284;51.310;16.904;2022-11-20T00:34:59;61.88;;;26.77;;
58496;SDS011;44284;51.310;16.904;2022-11-20T00:37:25;70.78;;;29.60;;
58496;SDS011;44284;51.310;16.904;2022-11-20T00:39:51;68.43;;;31.00;;
58496;SDS011;44284;51.310;16.904;2022-11-20T00:42:18;61.03;;;30.65;;
58496;SDS011;44284;51.310;16.904;2022-11-20T00:44:44;77.45;;;34.35;;
58496;SDS011;44284;51.310;16.904;2022-11-20T00:47:10;71.90;;;32.17;;
58496;SDS011;44284;51.310;16.904;2022-11-20T00:49:36;73.68;;;34.08;;
58496;SDS011;44284;51.310;16.904;2022-11-20T00:52:02;75.78;;;34.28;;
58496;SDS011;44284;51.310;16.904;2022-11-20T00:57:39;61.55;;;29.33;;
58496;SDS011;44284;51.310;16.904;2022-11-20T01:00:23;60.15;;;27.90;;
58496;SDS011;44284;51.310;16.904;2022-11-20T01:03:06;53.75;;;25.38;;
58496;SDS011;44284;51.310;16.904;2022-11-20T01:06:02;57.28;;;25.67;;
58496;SDS011;44284;51.310;16.904;2022-11-20T01:08:48;58.75;;;26.42;;
58496;SDS011;44284;51.310;16.904;2022-11-20T01:11:16;61.33;;;25.50;;
58496;SDS011;44284;51.310;16.904;2022-11-20T01:13:43;57.03;;;26.02;;
58496;SDS011;44284;51.310;16.904;2022-11-20T01:16:14;56.97;;;25.75;;
58496;SDS011;44284;51.310;16.904;2022-11-20T01:18:41;59.90;;;27.88;;
58496;SDS011;44284;51.310;16.904;2022-11-20T01:21:09;58.78;;;28.58;;
58496;SDS011;44284;51.310;16.904;2022-11-20T01:23:36;62.80;;;29.52;;
58496;SDS011;44284;51.310;16.904;2022-11-20T01:26:04;57.63;;;25.02;;
58496;SDS011;44284;51.310;16.904;2022-11-20T01:28:30;51.10;;;23.90;;
58496;SDS011;44284;51.310;16.904;2022-11-20T01:30:56;48.47;;;23.35;;
58496;SDS011;44284;51.310;16.904;2022-11-20T01:33:23;52.30;;;24.52;;
58496;SDS011;44284;51.310;16.904;2022-11-20T01:35:49;53.22;;;24.27;;
58496;SDS011;44284;51.310;16.904;2022-11-20T01:38:15;51.42;;;24.88;;
58496;SDS011;44284;51.310;16.904;2022-11-20T01:40:42;45.00;;;20.80;;
58496;SDS011;44284;51.310;16.904;2022-11-20T01:43:17;48.05;;;20.58;;
58496;SDS011;44284;51.310;16.904;2022-11-20T01:48:25;60.35;;;24.52;;
58496;SDS011;44284;51.310;16.904;2022-11-20T01:50:52;50.95;;;23.55;;
58496;SDS011;44284;51.310;16.904;2022-11-20T01:53:19;48.40;;;22.42;;
58496;SDS011;44284;51.310;16.904;2022-11-20T01:55:48;53.70;;;23.52;;
58496;SDS011;44284;51.310;16.904;2022-11-20T01:58:15;46.30;;;21.73;;
58496;SDS011;44284;51.310;16.904;2022-11-20T02:00:41;48.08;;;23.52;;
58496;SDS011;44284;51.310;16.904;2022-11-20T02:03:08;51.95;;;22.85;;
58496;SDS011;44284;51.310;16.904;2022-11-20T02:05:35;47.92;;;23.90;;
58496;SDS011;44284;51.310;16.904;2022-11-20T02:08:03;56.38;;;24.05;;
58496;SDS011;44284;51.310;16.904;2022-11-20T02:10:30;69.13;;;28.80;;
58496;SDS011;44284;51.310;16.904;2022-11-20T02:12:57;63.40;;;30.42;;
58496;SDS011;44284;51.310;16.904;2022-11-20T02:15:41;66.53;;;30.77;;
58496;SDS011;44284;51.310;16.904;2022-11-20T02:18:08;51.10;;;27.63;;
58496;SDS011;44284;51.310;16.904;2022-11-20T02:20:35;52.65;;;25.83;;
58496;SDS011;44284;51.310;16.904;2022-11-20T02:25:27;55.80;;;26.27;;
58496;SDS011;44284;51.310;16.904;2022-11-20T02:27:53;48.63;;;23.23;;
58496;SDS011;44284;51.310;16.904;2022-11-20T02:30:19;51.50;;;23.35;;
58496;SDS011;44284;51.310;16.904;2022-11-20T02:32:45;53.45;;;24.48;;
58496;SDS011;44284;51.310;16.904;2022-11-20T02:37:43;61.92;;;28.52;;
58496;SDS011;44284;51.310;16.904;2022-11-20T02:40:10;87.30;;;34.97;;
58496;SDS011;44284;51.310;16.904;2022-11-20T02:42:37;69.43;;;29.75;;
58496;SDS011;44284;51.310;16.904;2022-11-20T02:45:03;59.92;;;26.92;;
58496;SDS011;44284;51.310;16.904;2022-11-20T02:47:30;63.92;;;27.60;;
58496;SDS011;44284;51.310;16.904;2022-11-20T02:49:56;57.60;;;24.77;;
58496;SDS011;44284;51.310;16.904;2022-11-20T02:52:22;53.40;;;23.83;;
58496;SDS011;44284;51.310;16.904;2022-11-20T02:54:48;59.33;;;26.88;;
58496;SDS011;44284;51.310;16.904;2022-11-20T02:57:14;55.03;;;26.33;;
58496;SDS011;44284;51.310;16.904;2022-11-20T02:59:40;53.45;;;28.30;;
58496;SDS011;44284;51.310;16.904;2022-11-20T03:02:06;57.83;;;26.50;;
58496;SDS011;44284;51.310;16.904;2022-11-20T03:04:32;50.72;;;23.50;;
58496;SDS011;44284;51.310;16.904;2022-11-20T03:06:58;57.10;;;24.85;;
58496;SDS011;44284;51.310;16.904;2022-11-20T03:09:24;55.83;;;24.55;;
58496;SDS011;44284;51.310;16.904;2022-11-20T03:11:50;51.85;;;23.63;;
58496;SDS011;44284;51.310;16.904;2022-11-20T03:14:16;46.90;;;21.83;;
58496;SDS011;44284;51.310;16.904;2022-11-20T03:16:43;47.20;;;23.75;;
58496;SDS011;44284;51.310;16.904;2022-11-20T03:19:09;56.20;;;24.77;;
58496;SDS011;44284;51.310;16.904;2022-11-20T03:21:35;48.72;;;22.88;;
58496;SDS011;44284;51.310;16.904;2022-11-20T03:24:01;47.35;;;24.77;;
58496;SDS011;44284;51.310;16.904;2022-11-20T03:26:28;54.78;;;25.92;;
58496;SDS011;44284;51.310;16.904;2022-11-20T03:28:55;48.67;;;23.67;;
58496;SDS011;44284;51.310;16.904;2022-11-20T03:31:22;48.80;;;24.27;;
58496;SDS011;44284;51.310;16.904;2022-11-20T03:33:49;53.55;;;22.38;;
58496;SDS011;44284;51.310;16.904;2022-11-20T03:36:16;48.72;;;23.80;;
58496;SDS011;44284;51.310;16.904;2022-11-20T03:38:42;50.95;;;23.65;;
58496;SDS011;44284;51.310;16.904;2022-11-20T03:41:09;60.17;;;23.92;;
58496;SDS011;44284;51.310;16.904;2022-11-20T03:43:35;57.30;;;25.45;;
58496;SDS011;44284;51.310;16.904;2022-11-20T03:46:02;59.50;;;25.63;;
58496;SDS011;44284;51.310;16.904;2022-11-20T03:48:28;57.58;;;26.67;;
58496;SDS011;44284;51.310;16.904;2022-11-20T03:51:11;58.60;;;27.00;;
58496;SDS011;44284;51.310;16.904;2022-11-20T03:53:38;58.65;;;27.38;;
58496;SDS011;44284;51.310;16.904;2022-11-20T03:56:04;55.50;;;25.67;;
58496;SDS011;44284;51.310;16.904;2022-11-20T03:58:30;56.88;;;26.17;;
58496;SDS011;44284;51.310;16.904;2022-11-20T04:00:58;54.22;;;26.35;;
58496;SDS011;44284;51.310;16.904;2022-11-20T04:03:24;53.75;;;25.60;;
58496;SDS011;44284;51.310;16.904;2022-11-20T04:05:51;57.70;;;24.65;;
58496;SDS011;44284;51.310;16.904;2022-11-20T04:08:17;53.10;;;24.85;;
58496;SDS011;44284;51.310;16.904;2022-11-20T04:10:43;52.45;;;23.90;;
58496;SDS011;44284;51.310;16.904;2022-11-20T04:13:09;61.03;;;28.33;;
58496;SDS011;44284;51.310;16.904;2022-11-20T04:15:35;55.67;;;23.98;;
58496;SDS011;44284;51.310;16.904;2022-11-20T04:18:01;54.85;;;24.15;;
58496;SDS011;44284;51.310;16.904;2022-11-20T04:20:27;50.13;;;23.15;;
58496;SDS011;44284;51.310;16.904;2022-11-20T04:22:53;55.72;;;23.17;;
58496;SDS011;44284;51.310;16.904;2022-11-20T04:25:19;47.47;;;24.20;;
58496;SDS011;44284;51.310;16.904;2022-11-20T04:27:45;49.67;;;21.98;;
58496;SDS011;44284;51.310;16.904;2022-11-20T04:30:12;54.05;;;24.63;;
58496;SDS011;44284;51.310;16.904;2022-11-20T04:32:38;47.70;;;23.33;;
58496;SDS011;44284;51.310;16.904;2022-11-20T04:35:04;55.40;;;22.92;;
58496;SDS011;44284;51.310;16.904;2022-11-20T04:37:30;55.83;;;22.83;;
58496;SDS011;44284;51.310;16.904;2022-11-20T04:39:56;51.70;;;26.08;;
58496;SDS011;44284;51.310;16.904;2022-11-20T04:42:22;50.08;;;23.15;;
58496;SDS011;44284;51.310;16.904;2022-11-20T04:44:54;46.97;;;22.63;;
58496;SDS011;44284;51.310;16.904;2022-11-20T04:47:21;49.72;;;23.63;;
58496;SDS011;44284;51.310;16.904;2022-11-20T04:49:47;53.22;;;25.95;;
58496;SDS011;44284;51.310;16.904;2022-11-20T04:52:13;61.15;;;25.05;;
58496;SDS011;44284;51.310;16.904;2022-11-20T04:54:39;56.20;;;24.00;;
58496;SDS011;44284;51.310;16.904;2022-11-20T04:57:05;54.65;;;23.70;;
58496;SDS011;44284;51.310;16.904;2022-11-20T04:59:31;60.05;;;26.02;;
58496;SDS011;44284;51.310;16.904;2022-11-20T05:01:57;46.83;;;22.20;;
58496;SDS011;44284;51.310;16.904;2022-11-20T05:04:23;43.75;;;20.90;;
58496;SDS011;44284;51.310;16.904;2022-11-20T05:06:50;50.97;;;21.65;;
58496;SDS011;44284;51.310;16.904;2022-11-20T05:09:16;55.50;;;24.35;;
58496;SDS011;44284;51.310;16.904;2022-11-20T05:11:42;49.28;;;21.17;;
58496;SDS011;44284;51.310;16.904;2022-11-20T05:14:08;51.30;;;21.90;;
58496;SDS011;44284;51.310;16.904;2022-11-20T05:16:34;54.78;;;23.73;;
58496;SDS011;44284;51.310;16.904;2022-11-20T05:19:01;48.97;;;22.60;;
58496;SDS011;44284;51.310;16.904;2022-11-20T05:21:29;48.58;;;23.45;;
58496;SDS011;44284;51.310;16.904;2022-11-20T05:23:55;52.08;;;21.95;;
58496;SDS011;44284;51.310;16.904;2022-11-20T05:26:21;48.95;;;20.60;;
58496;SDS011;44284;51.310;16.904;2022-11-20T05:28:48;51.08;;;22.23;;
58496;SDS011;44284;51.310;16.904;2022-11-20T05:31:16;50.13;;;21.90;;
58496;SDS011;44284;51.310;16.904;2022-11-20T05:33:43;47.33;;;19.40;;
58496;SDS011;44284;51.310;16.904;2022-11-20T05:36:10;51.85;;;21.70;;
58496;SDS011;44284;51.310;16.904;2022-11-20T05:38:36;50.35;;;21.10;;
58496;SDS011;44284;51.310;16.904;2022-11-20T05:41:03;49.78;;;20.42;;
58496;SDS011;44284;51.310;16.904;2022-11-20T05:43:31;45.00;;;19.65;;
58496;SDS011;44284;51.310;16.904;2022-11-20T05:45:57;35.67;;;18.98;;
58496;SDS011;44284;51.310;16.904;2022-11-20T05:48:23;39.25;;;18.05;;
58496;SDS011;44284;51.310;16.904;2022-11-20T05:50:49;43.20;;;17.10;;
58496;SDS011;44284;51.310;16.904;2022-11-20T05:53:15;39.70;;;17.30;;
58496;SDS011;44284;51.310;16.904;2022-11-20T05:55:41;37.83;;;17.17;;
58496;SDS011;44284;51.310;16.904;2022-11-20T05:58:07;40.22;;;17.85;;
58496;SDS011;44284;51.310;16.904;2022-11-20T06:00:33;38.85;;;16.45;;
58496;SDS011;44284;51.310;16.904;2022-11-20T06:03:00;37.35;;;15.55;;
58496;SDS011;44284;51.310;16.904;2022-11-20T06:05:26;42.22;;;19.27;;
58496;SDS011;44284;51.310;16.904;2022-11-20T06:07:52;48.42;;;23.95;;
58496;SDS011;44284;51.310;16.904;2022-11-20T06:10:18;53.35;;;25.55;;
58496;SDS011;44284;51.310;16.904;2022-11-20T06:12:44;58.90;;;28.20;;
58496;SDS011;44284;51.310;16.904;2022-11-20T06:15:10;73.65;;;32.47;;
58496;SDS011;44284;51.310;16.904;2022-11-20T06:17:36;79.72;;;35.92;;
58496;SDS011;44284;51.310;16.904;2022-11-20T06:20:02;70.43;;;29.80;;
58496;SDS011;44284;51.310;16.904;2022-11-20T06:22:28;73.97;;;34.50;;
58496;SDS011;44284;51.310;16.904;2022-11-20T06:24:54;74.75;;;30.80;;
58496;SDS011;44284;51.310;16.904;2022-11-20T06:27:20;61.88;;;30.08;;
58496;SDS011;44284;51.310;16.904;2022-11-20T06:29:46;65.43;;;26.02;;
58496;SDS011;44284;51.310;16.904;2022-11-20T06:32:12;59.33;;;26.38;;
58496;SDS011;44284;51.310;16.904;2022-11-20T06:34:38;58.03;;;26.65;;
58496;SDS011;44284;51.310;16.904;2022-11-20T06:37:04;59.92;;;26.23;;
58496;SDS011;44284;51.310;16.904;2022-11-20T06:39:30;62.85;;;29.65;;
58496;SDS011;44284;51.310;16.904;2022-11-20T06:41:56;69.30;;;31.40;;
58496;SDS011;44284;51.310;16.904;2022-11-20T06:44:22;72.95;;;34.40;;
58496;SDS011;44284;51.310;16.904;2022-11-20T06:46:48;76.68;;;35.35;;
58496;SDS011;44284;51.310;16.904;2022-11-20T06:49:14;64.07;;;32.85;;
58496;SDS011;44284;51.310;16.904;2022-11-20T06:51:40;67.57;;;30.98;;
58496;SDS011;44284;51.310;16.904;2022-11-20T06:54:06;61.75;;;29.90;;
58496;SDS011;44284;51.310;16.904;2022-11-20T06:56:33;70.43;;;29.75;;
58496;SDS011;44284;51.310;16.904;2022-11-20T06:58:59;66.88;;;31.77;;
58496;SDS011;44284;51.310;16.904;2022-11-20T07:01:29;60.80;;;29.15;;
58496;SDS011;44284;51.310;16.904;2022-11-20T07:03:55;61.17;;;27.35;;
58496;SDS011;44284;51.310;16.904;2022-11-20T07:06:21;57.80;;;29.25;;
58496;SDS011;44284;51.310;16.904;2022-11-20T07:08:47;63.88;;;29.38;;
58496;SDS011;44284;51.310;16.904;2022-11-20T07:11:13;55.40;;;25.13;;
58496;SDS011;44284;51.310;16.904;2022-11-20T07:13:39;57.83;;;30.08;;
58496;SDS011;44284;51.310;16.904;2022-11-20T07:16:06;59.63;;;29.73;;
58496;SDS011;44284;51.310;16.904;2022-11-20T07:18:32;58.40;;;29.00;;
58496;SDS011;44284;51.310;16.904;2022-11-20T07:21:06;55.67;;;29.85;;
58496;SDS011;44284;51.310;16.904;2022-11-20T07:23:32;66.00;;;27.20;;
58496;SDS011;44284;51.310;16.904;2022-11-20T07:26:03;54.50;;;27.65;;
58496;SDS011;44284;51.310;16.904;2022-11-20T07:28:29;54.60;;;26.33;;
58496;SDS011;44284;51.310;16.904;2022-11-20T07:30:55;57.45;;;27.45;;
58496;SDS011;44284;51.310;16.904;2022-11-20T07:33:21;64.70;;;29.83;;
58496;SDS011;44284;51.310;16.904;2022-11-20T07:35:47;62.70;;;32.13;;
58496;SDS011;44284;51.310;16.904;2022-11-20T07:38:13;59.17;;;26.95;;
58496;SDS011;44284;51.310;16.904;2022-11-20T07:40:39;66.20;;;31.08;;
58496;SDS011;44284;51.310;16.904;2022-11-20T07:43:05;71.32;;;31.10;;
58496;SDS011;44284;51.310;16.904;2022-11-20T07:45:31;73.70;;;32.78;;
58496;SDS011;44284;51.310;16.904;2022-11-20T07:47:57;88.20;;;36.95;;
58496;SDS011;44284;51.310;16.904;2022-11-20T07:50:23;100.90;;;41.25;;
58496;SDS011;44284;51.310;16.904;2022-11-20T07:52:49;96.18;;;37.53;;
58496;SDS011;44284;51.310;16.904;2022-11-20T07:55:15;85.55;;;33.65;;
58496;SDS011;44284;51.310;16.904;2022-11-20T07:57:42;94.75;;;34.50;;
58496;SDS011;44284;51.310;16.904;2022-11-20T08:00:08;86.03;;;33.33;;
58496;SDS011;44284;51.310;16.904;2022-11-20T08:02:38;85.15;;;31.98;;
58496;SDS011;44284;51.310;16.904;2022-11-20T08:05:04;67.35;;;29.52;;
58496;SDS011;44284;51.310;16.904;2022-11-20T08:07:34;71.55;;;29.83;;
58496;SDS011;44284;51.310;16.904;2022-11-20T08:10:01;65.63;;;27.55;;
58496;SDS011;44284;51.310;16.904;2022-11-20T08:12:27;58.72;;;25.85;;
58496;SDS011;44284;51.310;16.904;2022-11-20T08:15:11;44.80;;;20.73;;
58496;SDS011;44284;51.310;16.904;2022-11-20T08:17:37;58.42;;;26.48;;
58496;SDS011;44284;51.310;16.904;2022-11-20T08:20:04;49.13;;;23.70;;
58496;SDS011;44284;51.310;16.904;2022-11-20T08:22:30;55.92;;;24.70;;
58496;SDS011;44284;51.310;16.904;2022-11-20T08:24:56;52.53;;;23.58;;
58496;SDS011;44284;51.310;16.904;2022-11-20T08:27:22;57.88;;;25.20;;
58496;SDS011;44284;51.310;16.904;2022-11-20T08:29:48;65.47;;;33.10;;
58496;SDS011;44284;51.310;16.904;2022-11-20T08:32:14;49.60;;;23.13;;
58496;SDS011;44284;51.310;16.904;2022-11-20T08:34:41;47.55;;;23.02;;
58496;SDS011;44284;51.310;16.904;2022-11-20T08:37:07;55.40;;;26.13;;
58496;SDS011;44284;51.310;16.904;2022-11-20T08:39:33;55.63;;;24.05;;
58496;SDS011;44284;51.310;16.904;2022-11-20T08:41:59;47.38;;;20.98;;
58496;SDS011;44284;51.310;16.904;2022-11-20T08:44:25;56.42;;;23.63;;
58496;SDS011;44284;51.310;16.904;2022-11-20T08:46:51;44.83;;;20.58;;
58496;SDS011;44284;51.310;16.904;2022-11-20T08:49:17;50.88;;;22.40;;
58496;SDS011;44284;51.310;16.904;2022-11-20T08:51:43;46.38;;;24.15;;
58496;SDS011;44284;51.310;16.904;2022-11-20T08:54:10;50.05;;;24.40;;
58496;SDS011;44284;51.310;16.904;2022-11-20T08:56:36;49.72;;;26.48;;
58496;SDS011;44284;51.310;16.904;2022-11-20T08:59:02;46.20;;;20.48;;
58496;SDS011;44284;51.310;16.904;2022-11-20T09:01:28;38.17;;;20.30;;
58496;SDS011;44284;51.310;16.904;2022-11-20T09:03:55;45.47;;;22.33;;
58496;SDS011;44284;51.310;16.904;2022-11-20T09:06:22;43.58;;;20.10;;
58496;SDS011;44284;51.310;16.904;2022-11-20T09:08:51;54.25;;;24.05;;
58496;SDS011;44284;51.310;16.904;2022-11-20T09:11:17;53.97;;;22.00;;
58496;SDS011;44284;51.310;16.904;2022-11-20T09:13:43;49.72;;;23.23;;
58496;SDS011;44284;51.310;16.904;2022-11-20T09:16:10;52.03;;;22.52;;
58496;SDS011;44284;51.310;16.904;2022-11-20T09:18:36;50.05;;;21.98;;
58496;SDS011;44284;51.310;16.904;2022-11-20T09:21:03;45.03;;;21.02;;
58496;SDS011;44284;51.310;16.904;2022-11-20T09:23:31;50.00;;;23.27;;
58496;SDS011;44284;51.310;16.904;2022-11-20T09:26:00;52.17;;;23.35;;
58496;SDS011;44284;51.310;16.904;2022-11-20T09:28:26;69.10;;;26.77;;
58496;SDS011;44284;51.310;16.904;2022-11-20T09:30:52;52.25;;;25.60;;
58496;SDS011;44284;51.310;16.904;2022-11-20T09:33:19;48.58;;;23.58;;
58496;SDS011;44284;51.310;16.904;2022-11-20T09:35:45;49.67;;;25.00;;
58496;SDS011;44284;51.310;16.904;2022-11-20T09:38:11;54.75;;;26.27;;
58496;SDS011;44284;51.310;16.904;2022-11-20T09:40:40;47.83;;;22.95;;
58496;SDS011;44284;51.310;16.904;2022-11-20T09:43:14;54.67;;;24.85;;
58496;SDS011;44284;51.310;16.904;2022-11-20T09:55:38;53.42;;;25.15;;
58496;SDS011;44284;51.310;16.904;2022-11-20T09:58:05;62.42;;;27.70;;
58496;SDS011;44284;51.310;16.904;2022-11-20T10:00:32;67.70;;;28.25;;
58496;SDS011;44284;51.310;16.904;2022-11-20T10:03:01;56.70;;;25.67;;
58496;SDS011;44284;51.310;16.904;2022-11-20T10:05:39;85.32;;;31.73;;
58496;SDS011;44284;51.310;16.904;2022-11-20T10:08:19;53.25;;;25.60;;
58496;SDS011;44284;51.310;16.904;2022-11-20T10:10:49;47.28;;;22.95;;
58496;SDS011;44284;51.310;16.904;2022-11-20T10:24:12;46.75;;;19.55;;
58496;SDS011;44284;51.310;16.904;2022-11-20T10:29:13;54.15;;;25.17;;
58496;SDS011;44284;51.310;16.904;2022-11-20T10:31:40;49.28;;;22.00;;
58496;SDS011;44284;51.310;16.904;2022-11-20T10:34:29;46.55;;;20.13;;
58496;SDS011;44284;51.310;16.904;2022-11-20T10:37:01;54.20;;;23.27;;
58496;SDS011;44284;51.310;16.904;2022-11-20T10:39:33;45.53;;;20.90;;
58496;SDS011;44284;51.310;16.904;2022-11-20T10:42:01;40.75;;;20.23;;
58496;SDS011;44284;51.310;16.904;2022-11-20T10:44:28;49.53;;;24.50;;
58496;SDS011;44284;51.310;16.904;2022-11-20T10:47:14;46.72;;;22.00;;
58496;SDS011;44284;51.310;16.904;2022-11-20T10:49:40;43.33;;;21.95;;
58496;SDS011;44284;51.310;16.904;2022-11-20T11:00:19;45.92;;;22.70;;
58496;SDS011;44284;51.310;16.904;2022-11-20T11:02:49;44.22;;;20.50;;
58496;SDS011;44284;51.310;16.904;2022-11-20T11:05:23;51.30;;;24.73;;
58496;SDS011;44284;51.310;16.904;2022-11-20T11:07:50;45.60;;;22.33;;
58496;SDS011;44284;51.310;16.904;2022-11-20T11:10:24;44.42;;;22.27;;
58496;SDS011;44284;51.310;16.904;2022-11-20T11:12:50;55.35;;;24.95;;
58496;SDS011;44284;51.310;16.904;2022-11-20T11:15:39;49.75;;;24.55;;
58496;SDS011;44284;51.310;16.904;2022-11-20T11:18:07;38.95;;;21.73;;
58496;SDS011;44284;51.310;16.904;2022-11-20T11:20:34;42.83;;;20.70;;
58496;SDS011;44284;51.310;16.904;2022-11-20T11:23:01;34.47;;;15.82;;
58496;SDS011;44284;51.310;16.904;2022-11-20T11:25:31;40.60;;;18.08;;
58496;SDS011;44284;51.310;16.904;2022-11-20T11:28:02;51.53;;;24.92;;
58496;SDS011;44284;51.310;16.904;2022-11-20T11:30:29;37.17;;;17.88;;
58496;SDS011;44284;51.310;16.904;2022-11-20T11:33:06;37.30;;;18.63;;
58496;SDS011;44284;51.310;16.904;2022-11-20T11:35:38;35.58;;;19.42;;
58496;SDS011;44284;51.310;16.904;2022-11-20T11:38:13;44.83;;;21.98;;
58496;SDS011;44284;51.310;16.904;2022-11-20T11:40:40;36.38;;;17.73;;
58496;SDS011;44284;51.310;16.904;2022-11-20T11:43:07;43.03;;;19.23;;
58496;SDS011;44284;51.310;16.904;2022-11-20T11:46:01;37.38;;;17.70;;
58496;SDS011;44284;51.310;16.904;2022-11-20T11:48:27;39.35;;;18.48;;
58496;SDS011;44284;51.310;16.904;2022-11-20T11:50:54;35.40;;;18.05;;
58496;SDS011;44284;51.310;16.904;2022-11-20T11:53:21;36.13;;;17.33;;
58496;SDS011;44284;51.310;16.904;2022-11-20T11:56:04;41.50;;;19.60;;
58496;SDS011;44284;51.310;16.904;2022-11-20T11:58:47;48.97;;;20.50;;
58496;SDS011;44284;51.310;16.904;2022-11-20T12:06:38;41.58;;;19.42;;
58496;SDS011;44284;51.310;16.904;2022-11-20T12:09:10;43.88;;;22.70;;
58496;SDS011;44284;51.310;16.904;2022-11-20T12:16:37;45.22;;;20.35;;
58496;SDS011;44284;51.310;16.904;2022-11-20T12:19:04;34.85;;;17.20;;
58496;SDS011;44284;51.310;16.904;2022-11-20T12:21:36;46.53;;;22.63;;
58496;SDS011;44284;51.310;16.904;2022-11-20T12:24:15;41.33;;;18.30;;
58496;SDS011;44284;51.310;16.904;2022-11-20T12:27:32;34.15;;;16.73;;
58496;SDS011;44284;51.310;16.904;2022-11-20T12:32:14;40.85;;;18.52;;
58496;SDS011;44284;51.310;16.904;2022-11-20T12:37:36;51.20;;;23.67;;
58496;SDS011;44284;51.310;16.904;2022-11-20T12:53:51;36.70;;;16.95;;
58496;SDS011;44284;51.310;16.904;2022-11-20T12:59:02;45.10;;;20.50;;
58496;SDS011;44284;51.310;16.904;2022-11-20T13:06:53;57.47;;;28.00;;
58496;SDS011;44284;51.310;16.904;2022-11-20T13:09:20;37.70;;;18.30;;
58496;SDS011;44284;51.310;16.904;2022-11-20T13:14:39;40.13;;;17.75;;
58496;SDS011;44284;51.310;16.904;2022-11-20T13:17:14;37.03;;;17.40;;
58496;SDS011;44284;51.310;16.904;2022-11-20T13:19:47;44.60;;;22.35;;
58496;SDS011;44284;51.310;16.904;2022-11-20T13:22:23;36.95;;;17.85;;
58496;SDS011;44284;51.310;16.904;2022-11-20T13:24:50;34.15;;;15.05;;
58496;SDS011;44284;51.310;16.904;2022-11-20T13:27:18;33.65;;;14.70;;
58496;SDS011;44284;51.310;16.904;2022-11-20T13:29:46;29.50;;;15.00;;
58496;SDS011;44284;51.310;16.904;2022-11-20T13:32:16;32.25;;;15.02;;
58496;SDS011;44284;51.310;16.904;2022-11-20T13:34:55;29.33;;;14.63;;
58496;SDS011;44284;51.310;16.904;2022-11-20T13:37:30;31.23;;;14.45;;
58496;SDS011;44284;51.310;16.904;2022-11-20T13:40:11;43.45;;;19.67;;
58496;SDS011;44284;51.310;16.904;2022-11-20T13:42:45;40.58;;;19.35;;
58496;SDS011;44284;51.310;16.904;2022-11-20T13:45:22;47.88;;;22.98;;
58496;SDS011;44284;51.310;16.904;2022-11-20T13:47:49;56.72;;;24.75;;
58496;SDS011;44284;51.310;16.904;2022-11-20T13:50:16;56.45;;;26.85;;
58496;SDS011;44284;51.310;16.904;2022-11-20T13:52:46;46.03;;;22.00;;
58496;SDS011;44284;51.310;16.904;2022-11-20T13:55:18;35.72;;;16.33;;
58496;SDS011;44284;51.310;16.904;2022-11-20T13:57:54;38.03;;;18.45;;
58496;SDS011;44284;51.310;16.904;2022-11-20T14:00:24;31.63;;;16.83;;
58496;SDS011;44284;51.310;16.904;2022-11-20T14:05:34;45.28;;;21.73;;
58496;SDS011;44284;51.310;16.904;2022-11-20T14:08:02;48.80;;;25.30;;
58496;SDS011;44284;51.310;16.904;2022-11-20T14:10:29;45.22;;;20.73;;
58496;SDS011;44284;51.310;16.904;2022-11-20T14:12:55;40.58;;;18.98;;
58496;SDS011;44284;51.310;16.904;2022-11-20T14:17:53;41.55;;;18.55;;
58496;SDS011;44284;51.310;16.904;2022-11-20T14:20:20;46.17;;;23.73;;
58496;SDS011;44284;51.310;16.904;2022-11-20T14:22:49;54.00;;;26.60;;
58496;SDS011;44284;51.310;16.904;2022-11-20T14:25:19;68.07;;;33.33;;
58496;SDS011;44284;51.310;16.904;2022-11-20T14:27:52;72.97;;;36.92;;
58496;SDS011;44284;51.310;16.904;2022-11-20T14:30:20;63.28;;;29.52;;
58496;SDS011;44284;51.310;16.904;2022-11-20T14:32:47;48.10;;;26.10;;
58496;SDS011;44284;51.310;16.904;2022-11-20T14:35:14;52.45;;;24.58;;
58496;SDS011;44284;51.310;16.904;2022-11-20T14:37:44;51.33;;;23.88;;
58496;SDS011;44284;51.310;16.904;2022-11-20T14:42:55;45.90;;;22.90;;
58496;SDS011;44284;51.310;16.904;2022-11-20T14:45:22;55.92;;;26.65;;
58496;SDS011;44284;51.310;16.904;2022-11-20T14:47:48;52.00;;;29.38;;
58496;SDS011;44284;51.310;16.904;2022-11-20T14:50:28;55.97;;;30.27;;
58496;SDS011;44284;51.310;16.904;2022-11-20T14:52:55;63.25;;;31.95;;
58496;SDS011;44284;51.310;16.904;2022-11-20T14:55:25;64.93;;;30.92;;
58496;SDS011;44284;51.310;16.904;2022-11-20T14:57:57;65.15;;;34.20;;
58496;SDS011;44284;51.310;16.904;2022-11-20T15:00:24;66.80;;;34.58;;
58496;SDS011;44284;51.310;16.904;2022-11-20T15:02:50;73.00;;;38.15;;
58496;SDS011;44284;51.310;16.904;2022-11-20T15:05:18;76.50;;;38.45;;
58496;SDS011;44284;51.310;16.904;2022-11-20T15:07:45;77.03;;;39.63;;
58496;SDS011;44284;51.310;16.904;2022-11-20T15:12:39;74.53;;;38.92;;
58496;SDS011;44284;51.310;16.904;2022-11-20T15:15:06;93.45;;;45.22;;
58496;SDS011;44284;51.310;16.904;2022-11-20T15:17:34;99.93;;;47.95;;
58496;SDS011;44284;51.310;16.904;2022-11-20T15:20:03;123.70;;;52.58;;
58496;SDS011;44284;51.310;16.904;2022-11-20T15:22:32;121.03;;;53.55;;
58496;SDS011;44284;51.310;16.904;2022-11-20T15:24:58;159.93;;;68.88;;
58496;SDS011;44284;51.310;16.904;2022-11-20T15:27:24;160.90;;;69.40;;
58496;SDS011;44284;51.310;16.904;2022-11-20T15:29:50;135.23;;;56.60;;
58496;SDS011;44284;51.310;16.904;2022-11-20T15:32:16;118.45;;;53.60;;
58496;SDS011;44284;51.310;16.904;2022-11-20T15:34:42;128.43;;;58.75;;
58496;SDS011;44284;51.310;16.904;2022-11-20T15:37:09;136.52;;;59.20;;
58496;SDS011;44284;51.310;16.904;2022-11-20T15:39:35;126.80;;;61.17;;
58496;SDS011;44284;51.310;16.904;2022-11-20T15:42:01;129.25;;;61.00;;
58496;SDS011;44284;51.310;16.904;2022-11-20T15:44:27;144.23;;;63.28;;
58496;SDS011;44284;51.310;16.904;2022-11-20T15:46:53;144.65;;;67.53;;